createdAt,value
2022-12-08T00:02:05.365Z,79.76
2022-12-08T00:04:53.690Z,79.91
2022-12-08T00:07:39.326Z,80.42
2022-12-08T00:10:32.285Z,80.67
2022-12-08T00:12:57.328Z,80.47
2022-12-08T00:15:25.819Z,80.49
2022-12-08T00:17:55.440Z,80.48
2022-12-08T00:20:23.658Z,80.47
2022-12-08T00:22:51.945Z,80.36
2022-12-08T00:25:20.148Z,80.36
2022-12-08T00:27:48.355Z,80.03
2022-12-08T00:30:16.841Z,80.26
2022-12-08T00:32:45.056Z,80.69
2022-12-08T00:35:15.137Z,80.51
2022-12-08T00:37:43.418Z,80.98
2022-12-08T00:40:12.121Z,80.69
2022-12-08T00:42:40.307Z,80.81
2022-12-08T00:45:09.064Z,80.74
2022-12-08T00:47:37.563Z,80.28
2022-12-08T00:50:06.759Z,80.33
2022-12-08T00:52:37.014Z,80.41
2022-12-08T00:55:06.130Z,80.58
2022-12-08T00:57:34.393Z,80.55
2022-12-08T01:00:03.271Z,80.53
2022-12-08T01:02:33.914Z,80.77
2022-12-08T01:05:02.372Z,81.09
2022-12-08T01:07:30.727Z,80.65
2022-12-08T01:10:00.377Z,81.08
2022-12-08T01:12:30.460Z,80.84
2022-12-08T01:15:02.503Z,81.00
2022-12-08T01:17:31.404Z,81.73
2022-12-08T01:19:59.718Z,81.98
2022-12-08T01:22:27.937Z,82.15
2022-12-08T01:24:56.433Z,81.75
2022-12-08T01:27:26.137Z,81.79
2022-12-08T01:29:55.647Z,81.80
2022-12-08T01:32:24.158Z,82.01
2022-12-08T01:34:52.659Z,82.51
2022-12-08T01:37:20.922Z,82.30
2022-12-08T01:39:49.127Z,81.77
2022-12-08T01:42:22.198Z,82.30
2022-12-08T01:45:03.791Z,82.09
2022-12-08T01:47:39.494Z,81.43
2022-12-08T01:50:12.781Z,81.35
2022-12-08T01:52:45.439Z,81.19
2022-12-08T01:55:18.831Z,80.95
2022-12-08T01:57:50.875Z,80.93
2022-12-08T02:00:23.170Z,80.86
2022-12-08T02:02:56.793Z,81.01
2022-12-08T02:05:28.767Z,80.96
2022-12-08T02:07:58.641Z,81.26
2022-12-08T02:10:31.628Z,80.92
2022-12-08T02:13:01.739Z,81.36
2022-12-08T02:15:38.731Z,81.64
2022-12-08T02:18:24.214Z,82.03
2022-12-08T02:20:59.546Z,81.80
2022-12-08T02:23:38.029Z,82.08
2022-12-08T02:26:30.159Z,82.33
2022-12-08T02:29:38.956Z,82.50
2022-12-08T02:32:29.621Z,82.11
2022-12-08T02:35:04.404Z,82.44
2022-12-08T02:37:37.371Z,82.15
2022-12-08T02:40:14.880Z,81.86
2022-12-08T02:42:47.388Z,81.48
2022-12-08T02:45:18.957Z,81.58
2022-12-08T02:47:48.045Z,81.39
2022-12-08T02:50:17.818Z,80.92
2022-12-08T02:52:47.437Z,80.89
2022-12-08T02:55:27.255Z,80.88
2022-12-08T02:58:30.808Z,81.04
2022-12-08T03:01:16.043Z,80.91
2022-12-08T03:03:53.188Z,81.08
2022-12-08T03:06:30.735Z,81.12
2022-12-08T03:09:05.190Z,80.93
2022-12-08T03:11:41.280Z,80.77
2022-12-08T03:14:13.662Z,80.88
2022-12-08T03:16:46.940Z,80.79
2022-12-08T03:19:20.305Z,81.13
2022-12-08T03:21:53.935Z,80.84
2022-12-08T03:24:24.410Z,80.82
2022-12-08T03:26:57.919Z,80.95
2022-12-08T03:29:26.620Z,81.07
2022-12-08T03:31:58.718Z,80.87
2022-12-08T03:34:30.125Z,80.98
2022-12-08T03:37:02.610Z,80.68
2022-12-08T03:39:31.042Z,80.65
2022-12-08T03:41:59.805Z,80.31
2022-12-08T03:44:28.160Z,80.19
2022-12-08T03:46:56.800Z,80.36
2022-12-08T03:49:25.030Z,80.53
2022-12-08T03:51:53.647Z,80.33
2022-12-08T03:54:24.384Z,80.83
2022-12-08T03:56:53.662Z,80.79
2022-12-08T03:59:21.892Z,80.27
2022-12-08T04:01:50.266Z,80.01
2022-12-08T04:04:19.107Z,80.46
2022-12-08T04:06:47.688Z,79.78
2022-12-08T04:09:16.020Z,79.47
2022-12-08T04:11:45.718Z,79.39
2022-12-08T04:14:14.040Z,79.13
2022-12-08T04:16:44.218Z,79.15
2022-12-08T04:19:12.751Z,79.30
2022-12-08T04:21:41.048Z,79.52
2022-12-08T04:24:10.213Z,79.39
2022-12-08T04:26:38.510Z,79.42
2022-12-08T04:29:08.158Z,79.38
2022-12-08T04:31:36.511Z,79.54
2022-12-08T04:34:04.965Z,79.70
2022-12-08T04:36:33.301Z,79.80
2022-12-08T04:39:01.861Z,79.72
2022-12-08T04:41:30.221Z,79.34
2022-12-08T04:43:58.847Z,79.11
2022-12-08T04:46:28.631Z,79.23
2022-12-08T04:48:57.052Z,79.08
2022-12-08T04:51:25.320Z,79.23
2022-12-08T04:53:53.602Z,79.22
2022-12-08T04:56:21.905Z,78.98
2022-12-08T04:58:50.200Z,79.11
2022-12-08T05:01:18.537Z,79.26
2022-12-08T05:03:48.299Z,79.43
2022-12-08T05:06:16.951Z,79.60
2022-12-08T05:08:45.565Z,79.67
2022-12-08T05:11:14.807Z,79.77
2022-12-08T05:13:43.064Z,79.67
2022-12-08T05:16:13.503Z,79.78
2022-12-08T05:18:43.256Z,79.74
2022-12-08T05:21:13.212Z,80.05
2022-12-08T05:23:41.544Z,80.38
2022-12-08T05:26:10.165Z,80.23
2022-12-08T05:28:41.703Z,80.20
2022-12-08T05:31:11.358Z,80.23
2022-12-08T05:33:39.756Z,80.33
2022-12-08T05:36:08.591Z,80.28
2022-12-08T05:38:38.452Z,80.12
2022-12-08T05:41:08.242Z,80.11
2022-12-08T05:43:38.091Z,80.44
2022-12-08T05:46:06.738Z,80.29
2022-12-08T05:48:35.644Z,80.67
2022-12-08T05:51:04.315Z,80.25
2022-12-08T05:53:32.653Z,80.49
2022-12-08T05:56:02.355Z,80.71
2022-12-08T05:58:30.648Z,80.70
2022-12-08T06:00:59.259Z,80.65
2022-12-08T06:03:28.633Z,80.76
2022-12-08T06:05:56.998Z,80.91
2022-12-08T06:08:25.883Z,80.79
2022-12-08T06:10:54.957Z,81.02
2022-12-08T06:13:25.164Z,81.30
2022-12-08T06:15:53.498Z,81.14
2022-12-08T06:18:21.859Z,81.08
2022-12-08T06:20:50.107Z,80.57
2022-12-08T06:23:18.456Z,80.83
2022-12-08T06:25:46.981Z,80.66
2022-12-08T06:28:15.599Z,80.70
2022-12-08T06:30:45.267Z,80.37
2022-12-08T06:33:13.579Z,80.96
2022-12-08T06:35:41.811Z,81.10
2022-12-08T06:38:10.551Z,80.82
2022-12-08T06:40:38.755Z,80.71
2022-12-08T06:43:07.025Z,80.77
2022-12-08T06:45:35.306Z,80.69
2022-12-08T06:48:05.225Z,80.38
2022-12-08T06:50:35.151Z,80.54
2022-12-08T06:53:05.720Z,80.10
2022-12-08T06:55:57.748Z,80.32
2022-12-08T06:58:23.127Z,80.64
2022-12-08T07:00:51.684Z,80.73
2022-12-08T07:03:21.498Z,80.88
2022-12-08T07:05:50.065Z,81.32
2022-12-08T07:08:18.462Z,81.64
2022-12-08T07:10:46.954Z,81.36
2022-12-08T07:13:15.287Z,81.48
2022-12-08T07:15:43.650Z,81.84
2022-12-08T07:18:11.902Z,81.53
2022-12-08T07:20:41.672Z,81.52
2022-12-08T07:23:10.193Z,81.49
2022-12-08T07:25:38.538Z,81.14
2022-12-08T07:28:11.698Z,81.18
2022-12-08T07:30:40.741Z,81.03
2022-12-08T07:33:09.070Z,81.22
2022-12-08T07:35:45.006Z,81.33
2022-12-08T07:38:18.786Z,81.47
2022-12-08T07:40:47.129Z,81.60
2022-12-08T07:43:15.715Z,81.42
2022-12-08T07:45:46.742Z,81.87
2022-12-08T07:48:15.888Z,81.89
2022-12-08T07:50:47.100Z,81.98
2022-12-08T07:53:15.930Z,82.08
2022-12-08T07:55:45.957Z,81.74
2022-12-08T07:58:15.797Z,81.71
2022-12-08T08:00:44.149Z,81.74
2022-12-08T08:03:13.417Z,81.69
2022-12-08T08:05:42.120Z,81.46
2022-12-08T08:08:10.765Z,81.74
2022-12-08T08:10:39.068Z,81.47
2022-12-08T08:13:09.787Z,81.83
2022-12-08T08:15:38.520Z,81.90
2022-12-08T08:18:06.976Z,81.88
2022-12-08T08:20:35.586Z,81.98
2022-12-08T08:23:03.913Z,81.62
2022-12-08T08:25:32.337Z,81.46
2022-12-08T08:28:00.627Z,81.27
2022-12-08T08:30:30.396Z,81.26
2022-12-08T08:32:58.647Z,80.53
2022-12-08T08:35:26.947Z,80.50
2022-12-08T08:37:55.460Z,80.57
2022-12-08T08:40:24.184Z,80.22
2022-12-08T08:42:52.536Z,79.61
2022-12-08T08:45:20.852Z,78.93
2022-12-08T08:47:50.500Z,77.08
2022-12-08T08:50:18.808Z,74.25
2022-12-08T08:52:47.074Z,71.01
2022-12-08T08:55:15.639Z,68.75
2022-12-08T08:57:44.055Z,65.79
2022-12-08T09:00:13.565Z,63.86
2022-12-08T09:02:42.124Z,62.30
2022-12-08T09:05:13.478Z,61.58
2022-12-08T09:07:41.810Z,60.49
2022-12-08T09:10:11.235Z,58.77
2022-12-08T09:12:39.553Z,57.61
2022-12-08T09:15:08.721Z,57.36
2022-12-08T09:17:37.055Z,56.57
2022-12-08T09:20:06.422Z,55.88
2022-12-08T09:22:37.172Z,54.57
2022-12-08T09:25:06.057Z,55.51
2022-12-08T09:27:34.460Z,57.79
2022-12-08T09:30:03.468Z,56.89
2022-12-08T09:32:31.908Z,55.92
2022-12-08T09:35:00.384Z,54.96
2022-12-08T09:37:28.815Z,56.46
2022-12-08T09:39:58.454Z,57.77
2022-12-08T09:42:35.028Z,59.65
2022-12-08T09:45:07.017Z,61.69
2022-12-08T09:47:40.517Z,62.91
2022-12-08T09:50:15.663Z,64.39
2022-12-08T09:52:48.721Z,65.01
2022-12-08T09:55:25.643Z,65.33
2022-12-08T09:58:02.976Z,66.57
2022-12-08T10:00:32.211Z,67.18
2022-12-08T10:03:01.196Z,67.70
2022-12-08T10:05:34.490Z,67.77
2022-12-08T10:08:10.040Z,68.27
2022-12-08T10:10:43.857Z,68.47
2022-12-08T10:13:21.161Z,68.52
2022-12-08T10:15:59.798Z,68.74
2022-12-08T10:18:31.709Z,69.14
2022-12-08T10:21:12.000Z,68.61
2022-12-08T10:23:42.545Z,68.81
2022-12-08T10:26:14.804Z,68.75
2022-12-08T10:28:45.412Z,69.03
2022-12-08T10:31:18.223Z,68.58
2022-12-08T10:33:49.279Z,68.49
2022-12-08T10:36:17.610Z,68.48
2022-12-08T10:38:45.848Z,67.58
2022-12-08T10:41:18.353Z,67.51
2022-12-08T10:43:49.345Z,67.91
2022-12-08T10:46:21.386Z,67.31
2022-12-08T10:48:53.162Z,67.15
2022-12-08T10:51:28.581Z,67.17
2022-12-08T10:53:57.226Z,66.50
2022-12-08T10:56:29.717Z,65.95
2022-12-08T10:59:15.382Z,65.01
2022-12-08T11:01:47.947Z,65.60
2022-12-08T11:04:19.888Z,65.07
2022-12-08T11:06:49.615Z,64.53
2022-12-08T11:09:38.470Z,63.24
2022-12-08T11:12:15.628Z,62.69
2022-12-08T11:14:51.928Z,62.30
2022-12-08T11:17:27.695Z,62.06
2022-12-08T11:20:01.479Z,61.21
2022-12-08T11:22:33.288Z,61.45
2022-12-08T11:25:04.190Z,61.64
2022-12-08T11:27:36.746Z,59.71
2022-12-08T11:30:12.731Z,58.23
2022-12-08T11:32:44.788Z,59.64
2022-12-08T11:35:21.952Z,59.99
2022-12-08T11:37:50.409Z,58.92
2022-12-08T11:40:24.525Z,59.12
2022-12-08T11:43:10.013Z,58.53
2022-12-08T11:45:38.360Z,58.01
2022-12-08T11:48:15.717Z,58.59
2022-12-08T11:50:50.798Z,57.05
2022-12-08T11:53:29.078Z,57.73
2022-12-08T11:56:01.820Z,58.58
2022-12-08T11:58:39.528Z,58.95
2022-12-08T12:01:18.046Z,59.84
2022-12-08T12:03:51.778Z,59.44
2022-12-08T12:06:57.573Z,59.57
2022-12-08T12:09:39.139Z,57.90
2022-12-08T12:12:16.731Z,57.45
2022-12-08T12:15:11.588Z,55.84
2022-12-08T12:17:44.823Z,56.25
2022-12-08T12:20:18.791Z,56.94
2022-12-08T12:22:53.255Z,56.89
2022-12-08T12:25:24.203Z,57.86
2022-12-08T12:27:57.585Z,57.29
2022-12-08T12:30:29.681Z,57.80
2022-12-08T12:33:01.201Z,58.19
2022-12-08T12:35:35.813Z,58.99
2022-12-08T12:38:28.640Z,58.30
2022-12-08T12:41:01.285Z,58.99
2022-12-08T12:43:33.687Z,59.50
2022-12-08T12:46:41.455Z,60.61
2022-12-08T12:49:54.443Z,61.23
2022-12-08T12:52:43.098Z,61.06
2022-12-08T12:55:52.478Z,60.68
2022-12-08T12:58:37.017Z,59.32
2022-12-08T13:01:47.659Z,58.95
2022-12-08T13:04:16.484Z,59.60
2022-12-08T13:06:49.901Z,59.53
2022-12-08T13:09:25.031Z,59.81
2022-12-08T13:11:57.004Z,60.33
2022-12-08T13:14:30.815Z,58.92
2022-12-08T13:17:02.769Z,57.95
2022-12-08T13:19:34.065Z,57.92
2022-12-08T13:22:02.900Z,57.42
2022-12-08T13:24:36.399Z,58.38
2022-12-08T13:27:36.242Z,58.89
2022-12-08T13:30:41.586Z,59.53
2022-12-08T13:33:18.964Z,58.65
2022-12-08T13:35:57.926Z,57.63
2022-12-08T13:38:31.355Z,57.56
2022-12-08T13:41:04.219Z,58.01
2022-12-08T13:43:51.292Z,58.45
2022-12-08T13:54:16.459Z,56.78
2022-12-08T13:56:51.414Z,56.82
2022-12-08T13:58:19.300Z,56.92
2022-12-08T14:00:58.804Z,55.99
2022-12-08T14:03:27.685Z,56.92
2022-12-08T14:06:13.563Z,56.80
2022-12-08T14:09:05.273Z,56.22
2022-12-08T14:11:37.343Z,56.69
2022-12-08T14:14:07.281Z,56.58
2022-12-08T14:16:39.864Z,57.43
2022-12-08T14:19:18.001Z,57.98
2022-12-08T14:21:55.027Z,57.98
2022-12-08T14:24:24.500Z,56.21
2022-12-08T14:26:55.600Z,56.58
2022-12-08T14:29:39.568Z,57.03
2022-12-08T14:32:21.677Z,56.31
2022-12-08T14:34:56.656Z,56.38
2022-12-08T14:37:28.150Z,56.68
2022-12-08T14:40:01.979Z,56.36
2022-12-08T14:42:31.973Z,56.40
2022-12-08T14:45:05.421Z,56.51
2022-12-08T14:47:35.528Z,56.72
2022-12-08T14:50:06.731Z,56.26
2022-12-08T14:52:44.708Z,56.37
2022-12-08T14:55:16.755Z,56.81
2022-12-08T14:57:45.098Z,56.79
2022-12-08T15:00:22.060Z,57.02
2022-12-08T15:02:50.503Z,56.40
2022-12-08T15:05:22.035Z,56.34
2022-12-08T15:07:53.950Z,56.69
2022-12-08T15:10:29.102Z,57.04
2022-12-08T15:13:07.581Z,56.99
2022-12-08T15:15:50.818Z,57.53
2022-12-08T15:18:20.918Z,57.69
2022-12-08T15:20:52.917Z,58.22
2022-12-08T15:23:26.947Z,58.27
2022-12-08T15:25:55.917Z,58.02
2022-12-08T15:28:29.636Z,58.27
2022-12-08T15:31:00.294Z,58.56
2022-12-08T15:33:29.008Z,58.94
2022-12-08T15:35:57.338Z,59.47
2022-12-08T15:38:29.720Z,59.44
2022-12-08T15:40:59.207Z,59.23
2022-12-08T15:43:27.924Z,60.15
2022-12-08T15:45:59.856Z,59.67
2022-12-08T15:48:30.139Z,59.77
2022-12-08T15:50:58.783Z,59.70
2022-12-08T15:53:29.857Z,59.98
2022-12-08T15:56:26.321Z,59.94
2022-12-08T15:58:55.567Z,60.16
2022-12-08T16:01:24.818Z,60.04
2022-12-08T16:04:37.233Z,60.11
2022-12-08T16:07:19.612Z,60.26
2022-12-08T16:09:38.516Z,60.31
2022-12-08T16:12:25.300Z,60.55
2022-12-08T16:17:42.882Z,60.75
2022-12-08T16:20:15.512Z,60.77
2022-12-08T16:22:56.403Z,61.07
2022-12-08T16:25:52.821Z,61.18
2022-12-08T16:28:52.817Z,60.84
2022-12-08T16:31:16.677Z,61.24
2022-12-08T16:33:48.143Z,60.74
2022-12-08T16:36:16.402Z,60.94
2022-12-08T16:38:44.824Z,61.64
2022-12-08T16:41:33.841Z,61.52
2022-12-08T16:44:03.616Z,61.95
2022-12-08T16:46:34.088Z,62.13
2022-12-08T16:49:02.578Z,61.59
2022-12-08T16:51:30.898Z,62.08
2022-12-08T16:54:00.083Z,62.24
2022-12-08T16:56:33.076Z,62.29
2022-12-08T16:59:03.060Z,62.54
2022-12-08T17:01:32.196Z,62.66
2022-12-08T17:04:30.472Z,62.66
2022-12-08T17:06:51.071Z,62.88
2022-12-08T17:09:20.549Z,62.90
2022-12-08T17:11:50.333Z,63.01
2022-12-08T17:14:18.728Z,63.44
2022-12-08T17:16:47.143Z,63.68
2022-12-08T17:19:16.079Z,63.96
2022-12-08T17:21:45.301Z,63.93
2022-12-08T17:24:17.125Z,64.05
2022-12-08T17:26:50.197Z,64.61
2022-12-08T17:29:18.884Z,64.79
2022-12-08T17:31:47.474Z,64.65
2022-12-08T17:34:18.209Z,64.99
2022-12-08T17:36:46.668Z,65.22
2022-12-08T17:39:18.825Z,65.44
2022-12-08T17:41:47.766Z,65.91
2022-12-08T17:44:18.940Z,65.87
2022-12-08T17:46:52.499Z,66.16
2022-12-08T17:49:24.607Z,66.21
2022-12-08T17:51:56.554Z,66.14
2022-12-08T17:54:25.485Z,66.00
2022-12-08T17:56:54.250Z,66.33
2022-12-08T17:59:24.065Z,66.51
2022-12-08T18:01:53.986Z,66.31
2022-12-08T18:04:22.780Z,66.34
2022-12-08T18:06:51.120Z,66.58
2022-12-08T18:09:20.247Z,66.71
2022-12-08T18:11:48.900Z,66.90
2022-12-08T18:14:17.696Z,66.89
2022-12-08T18:16:48.145Z,67.20
2022-12-08T18:19:17.223Z,67.43
2022-12-08T18:21:45.902Z,67.61
2022-12-08T18:24:19.686Z,67.93
2022-12-08T18:26:48.463Z,67.71
2022-12-08T18:29:16.864Z,68.16
2022-12-08T18:31:46.697Z,68.22
2022-12-08T18:34:15.163Z,68.34
2022-12-08T18:36:43.595Z,68.33
2022-12-08T18:39:23.352Z,68.37
2022-12-08T18:41:51.799Z,68.58
2022-12-08T18:44:20.742Z,68.57
2022-12-08T18:46:50.702Z,69.04
2022-12-08T18:49:20.792Z,69.05
2022-12-08T18:51:49.285Z,69.45
2022-12-08T18:54:17.707Z,69.72
2022-12-08T18:56:46.104Z,69.74
2022-12-08T18:59:14.882Z,69.83
2022-12-08T19:01:43.692Z,69.87
2022-12-08T19:04:28.278Z,69.82
2022-12-08T19:06:58.792Z,69.70
2022-12-08T19:09:29.136Z,69.92
2022-12-08T19:11:58.606Z,69.98
2022-12-08T19:14:28.433Z,69.66
2022-12-08T19:16:57.891Z,70.27
2022-12-08T19:19:28.287Z,70.37
2022-12-08T19:21:57.159Z,70.05
2022-12-08T19:24:26.012Z,70.62
2022-12-08T19:26:54.435Z,70.37
2022-12-08T19:29:22.831Z,70.55
2022-12-08T19:31:51.288Z,70.31
2022-12-08T19:34:20.115Z,70.08
2022-12-08T19:36:50.105Z,70.02
2022-12-08T19:39:37.361Z,70.21
2022-12-08T19:42:24.606Z,70.15
2022-12-08T19:44:55.654Z,70.05
2022-12-08T19:47:25.699Z,70.13
2022-12-08T19:49:54.969Z,70.12
2022-12-08T19:52:24.987Z,70.73
2022-12-08T19:54:53.341Z,70.63
2022-12-08T19:57:22.195Z,71.00
2022-12-08T20:00:03.537Z,70.84
2022-12-08T20:02:38.342Z,71.36
2022-12-08T20:05:07.678Z,71.74
2022-12-08T20:07:37.674Z,72.08
2022-12-08T20:10:08.037Z,71.90
2022-12-08T20:12:36.730Z,72.33
2022-12-08T20:15:05.618Z,71.69
2022-12-08T20:17:33.994Z,71.71
2022-12-08T20:20:06.807Z,71.48
2022-12-08T20:22:37.736Z,71.46
2022-12-08T20:25:06.658Z,71.22
2022-12-08T20:27:35.029Z,71.19
2022-12-08T20:30:03.458Z,71.34
2022-12-08T20:32:31.832Z,71.61
2022-12-08T20:35:00.307Z,71.87
2022-12-08T20:37:28.638Z,72.01
2022-12-08T20:39:58.456Z,72.18
2022-12-08T20:42:26.901Z,71.94
2022-12-08T20:44:55.700Z,71.94
2022-12-08T20:47:24.069Z,71.67
2022-12-08T20:49:52.456Z,71.39
2022-12-08T20:52:20.812Z,70.88
2022-12-08T20:54:51.415Z,70.46
2022-12-08T20:57:22.432Z,69.99
2022-12-08T20:59:50.875Z,69.68
2022-12-08T21:02:19.374Z,69.22
2022-12-08T21:04:50.431Z,69.39
2022-12-08T21:07:19.167Z,69.37
2022-12-08T21:09:47.627Z,69.05
2022-12-08T21:12:16.238Z,68.90
2022-12-08T21:14:46.336Z,68.97
2022-12-08T21:17:15.707Z,68.85
2022-12-08T21:19:44.837Z,68.97
2022-12-08T21:22:14.345Z,68.99
2022-12-08T21:24:43.598Z,68.95
2022-12-08T21:27:11.992Z,69.05
2022-12-08T21:29:40.541Z,68.83
2022-12-08T21:32:10.458Z,68.72
2022-12-08T21:34:38.949Z,68.79
2022-12-08T21:37:07.479Z,68.76
2022-12-08T21:39:37.668Z,68.76
2022-12-08T21:42:24.298Z,68.93
2022-12-08T21:44:55.751Z,69.18
2022-12-08T21:47:25.678Z,69.28
2022-12-08T21:49:54.181Z,69.22
2022-12-08T21:52:23.616Z,68.82
2022-12-08T21:54:52.792Z,69.30
2022-12-08T21:57:21.539Z,69.49
2022-12-08T21:59:50.621Z,69.45
2022-12-08T22:02:22.663Z,69.51
2022-12-08T22:04:53.084Z,69.63
2022-12-08T22:07:22.509Z,69.65
2022-12-08T22:09:51.871Z,69.51
2022-12-08T22:12:20.580Z,69.86
2022-12-08T22:14:51.072Z,69.79
2022-12-08T22:17:20.229Z,70.03
2022-12-08T22:19:50.467Z,69.64
2022-12-08T22:22:20.782Z,69.48
2022-12-08T22:24:49.380Z,69.89
2022-12-08T22:27:17.776Z,69.79
2022-12-08T22:29:48.007Z,69.96
2022-12-08T22:32:16.636Z,70.15
2022-12-08T22:34:45.132Z,70.21
2022-12-08T22:37:13.813Z,70.24
2022-12-08T22:39:44.995Z,70.38
2022-12-08T22:42:13.538Z,70.85
2022-12-08T22:44:42.391Z,70.71
2022-12-08T22:47:10.926Z,70.66
2022-12-08T22:49:39.392Z,70.44
2022-12-08T22:52:07.963Z,70.86
2022-12-08T22:54:37.560Z,70.89
2022-12-08T22:57:07.367Z,70.51
2022-12-08T22:59:36.150Z,70.88
2022-12-08T23:02:04.593Z,71.15
2022-12-08T23:04:33.010Z,70.99
2022-12-08T23:07:01.776Z,71.37
2022-12-08T23:09:31.227Z,70.99
2022-12-08T23:11:59.576Z,71.10
2022-12-08T23:14:29.519Z,70.59
2022-12-08T23:16:58.024Z,71.05
2022-12-08T23:19:26.372Z,71.33
2022-12-08T23:21:56.446Z,71.24
2022-12-08T23:24:25.432Z,71.43
2022-12-08T23:26:53.756Z,71.20
2022-12-08T23:29:22.133Z,71.68
2022-12-08T23:31:52.113Z,71.69
2022-12-08T23:34:21.366Z,71.48
2022-12-08T23:36:49.863Z,71.57
2022-12-08T23:39:18.315Z,71.29
2022-12-08T23:41:48.043Z,71.75
2022-12-08T23:44:16.438Z,71.84
2022-12-08T23:46:45.540Z,71.83
2022-12-08T23:49:15.981Z,72.00
2022-12-08T23:51:46.374Z,72.05
2022-12-08T23:54:14.698Z,71.96
2022-12-08T23:56:43.285Z,72.04
2022-12-08T23:59:11.947Z,72.13
